createdAt,value
2022-10-11T00:00:59.170Z,101073.03
2022-10-11T00:02:01.534Z,101070.41
2022-10-11T00:03:05.783Z,101072.25
2022-10-11T00:04:08.266Z,101075.50
2022-10-11T00:05:10.857Z,101076.59
2022-10-11T00:06:13.084Z,101079.31
2022-10-11T00:07:15.272Z,101082.91
2022-10-11T00:08:17.668Z,101087.38
2022-10-11T00:09:19.975Z,101082.38
2022-10-11T00:10:22.261Z,101090.34
2022-10-11T00:11:24.571Z,101084.31
2022-10-11T00:12:26.765Z,101094.03
2022-10-11T00:13:29.625Z,101091.50
2022-10-11T00:14:34.103Z,101082.53
2022-10-11T00:15:36.408Z,101094.34
2022-10-11T00:16:40.994Z,101095.34
2022-10-11T00:17:43.886Z,101089.78
2022-10-11T00:18:46.396Z,101087.09
2022-10-11T00:19:48.965Z,101091.53
2022-10-11T00:20:51.164Z,101096.09
2022-10-11T00:21:53.575Z,101097.03
2022-10-11T00:22:56.007Z,101100.53
2022-10-11T00:23:58.461Z,101097.59
2022-10-11T00:25:00.846Z,101096.78
2022-10-11T00:26:05.735Z,101087.84
2022-10-11T00:27:08.314Z,101101.28
2022-10-11T00:28:10.712Z,101095.81
2022-10-11T00:29:13.053Z,101100.38
2022-10-11T00:30:15.688Z,101108.34
2022-10-11T00:31:18.338Z,101100.28
2022-10-11T00:32:20.737Z,101104.78
2022-10-11T00:33:22.986Z,101114.53
2022-10-11T00:34:25.690Z,101121.66
2022-10-11T00:35:28.077Z,101122.78
2022-10-11T00:36:30.260Z,101126.22
2022-10-11T00:37:37.010Z,101121.63
2022-10-11T00:38:39.423Z,101123.72
2022-10-11T00:39:41.754Z,101123.53
2022-10-11T00:40:44.471Z,101118.81
2022-10-11T00:41:47.875Z,101126.22
2022-10-11T00:42:50.265Z,101117.47
2022-10-11T00:44:16.342Z,101121.91
2022-10-11T00:45:27.719Z,101123.72
2022-10-11T00:46:31.192Z,101122.84
2022-10-11T00:47:33.424Z,101125.53
2022-10-11T00:48:44.673Z,101126.47
2022-10-11T00:49:57.870Z,101127.38
2022-10-11T00:51:03.014Z,101121.34
2022-10-11T00:52:17.134Z,101123.13
2022-10-11T00:53:19.599Z,101130.28
2022-10-11T00:54:25.677Z,101135.53
2022-10-11T00:55:35.129Z,101133.97
2022-10-11T00:56:39.904Z,101144.69
2022-10-11T00:57:46.102Z,101143.81
2022-10-11T00:58:48.640Z,101142.31
2022-10-11T00:59:55.085Z,101148.69
2022-10-11T01:00:57.919Z,101143.47
2022-10-11T01:02:00.435Z,101143.41
2022-10-11T01:03:04.828Z,101145.81
2022-10-11T01:04:07.065Z,101150.88
2022-10-11T01:05:28.631Z,101153.44
2022-10-11T01:06:33.452Z,101149.88
2022-10-11T01:07:37.804Z,101154.50
2022-10-11T01:08:40.270Z,101155.50
2022-10-11T01:09:42.425Z,101160.06
2022-10-11T01:10:44.962Z,101155.78
2022-10-11T01:11:48.411Z,101161.06
2022-10-11T01:13:18.300Z,101164.13
2022-10-11T01:14:20.571Z,101163.97
2022-10-11T01:15:44.603Z,101179.03
2022-10-11T01:17:01.580Z,101177.28
2022-10-11T01:18:12.679Z,101174.59
2022-10-11T01:19:14.922Z,101168.50
2022-10-11T01:20:40.716Z,101179.97
2022-10-11T01:21:57.645Z,101170.44
2022-10-11T01:23:12.102Z,101175.69
2022-10-11T01:24:46.777Z,101175.75
2022-10-11T01:26:16.860Z,101180.28
2022-10-11T01:27:40.973Z,101178.75
2022-10-11T01:29:01.232Z,101180.44
2022-10-11T01:30:33.065Z,101181.06
2022-10-11T01:31:43.043Z,101184.63
2022-10-11T01:33:16.539Z,101184.13
2022-10-11T01:34:58.569Z,101192.25
2022-10-11T01:36:27.705Z,101192.41
2022-10-11T01:37:37.708Z,101192.66
2022-10-11T01:39:06.739Z,101201.00
2022-10-11T01:40:17.603Z,101206.59
2022-10-11T01:41:31.271Z,101195.84
2022-10-11T01:42:36.400Z,101194.13
2022-10-11T01:43:41.112Z,101199.56
2022-10-11T01:44:48.135Z,101198.59
2022-10-11T01:45:52.344Z,101196.91
2022-10-11T01:46:54.843Z,101208.50
2022-10-11T01:48:03.977Z,101206.81
2022-10-11T01:49:06.773Z,101212.19
2022-10-11T01:50:31.426Z,101213.97
2022-10-11T01:51:37.487Z,101210.41
2022-10-11T01:52:44.491Z,101215.94
2022-10-11T01:53:59.268Z,101216.94
2022-10-11T01:55:14.025Z,101215.28
2022-10-11T01:56:26.085Z,101222.44
2022-10-11T01:57:46.759Z,101226.16
2022-10-11T01:59:03.783Z,101225.34
2022-10-11T02:00:18.037Z,101228.22
2022-10-11T02:01:48.240Z,101235.41
2022-10-11T02:03:06.146Z,101238.19
2022-10-11T02:04:17.042Z,101240.88
2022-10-11T02:05:25.136Z,101235.63
2022-10-11T02:06:47.327Z,101241.91
2022-10-11T02:08:31.238Z,101246.47
2022-10-11T02:09:48.283Z,101259.84
2022-10-11T02:11:05.775Z,101248.34
2022-10-11T02:12:12.751Z,101249.13
2022-10-11T02:13:38.030Z,101260.72
2022-10-11T02:14:47.095Z,101250.78
2022-10-11T02:15:50.659Z,101251.72
2022-10-11T02:16:57.802Z,101260.63
2022-10-11T02:18:05.992Z,101256.25
2022-10-11T02:19:11.929Z,101262.50
2022-10-11T02:20:19.876Z,101265.00
2022-10-11T02:21:23.726Z,101266.91
2022-10-11T02:22:34.078Z,101267.00
2022-10-11T02:23:42.260Z,101264.50
2022-10-11T02:24:49.189Z,101268.94
2022-10-11T02:25:53.621Z,101272.41
2022-10-11T02:26:57.515Z,101271.53
2022-10-11T02:28:03.418Z,101277.91
2022-10-11T02:29:10.304Z,101276.06
2022-10-11T02:30:12.845Z,101279.66
2022-10-11T02:31:17.165Z,101276.16
2022-10-11T02:32:20.863Z,101272.56
2022-10-11T02:33:30.071Z,101278.03
2022-10-11T02:34:37.678Z,101281.56
2022-10-11T02:35:46.104Z,101282.69
2022-10-11T02:37:23.377Z,101281.72
2022-10-11T02:38:30.338Z,101285.34
2022-10-11T02:39:47.427Z,101282.69
2022-10-11T02:41:05.635Z,101291.53
2022-10-11T02:42:17.385Z,101284.69
2022-10-11T02:43:28.332Z,101283.09
2022-10-11T02:44:40.382Z,101289.44
2022-10-11T02:45:49.951Z,101298.41
2022-10-11T02:46:52.426Z,101295.91
2022-10-11T02:47:55.009Z,101297.84
2022-10-11T02:48:59.975Z,101298.66
2022-10-11T02:50:02.907Z,101298.22
2022-10-11T02:51:05.905Z,101302.84
2022-10-11T02:52:08.140Z,101295.84
2022-10-11T02:53:10.441Z,101292.44
2022-10-11T02:54:12.735Z,101302.22
2022-10-11T02:55:14.907Z,101295.94
2022-10-11T02:56:17.191Z,101300.44
2022-10-11T02:57:20.124Z,101296.97
2022-10-11T02:58:23.475Z,101298.84
2022-10-11T02:59:25.766Z,101301.63
2022-10-11T03:00:28.114Z,101301.59
2022-10-11T03:01:30.352Z,101306.22
2022-10-11T03:02:33.063Z,101309.84
2022-10-11T03:03:35.169Z,101307.91
2022-10-11T03:04:37.563Z,101312.22
2022-10-11T03:05:43.867Z,101314.06
2022-10-11T03:06:46.111Z,101307.28
2022-10-11T03:07:48.575Z,101319.59
2022-10-11T03:08:50.704Z,101312.56
2022-10-11T03:09:53.022Z,101317.16
2022-10-11T03:10:55.171Z,101317.91
2022-10-11T03:11:57.313Z,101317.88
2022-10-11T03:13:02.604Z,101317.97
2022-10-11T03:14:04.790Z,101321.56
2022-10-11T03:15:07.342Z,101329.56
2022-10-11T03:16:10.113Z,101332.28
2022-10-11T03:17:35.014Z,101329.56
2022-10-11T03:18:35.315Z,101327.84
2022-10-11T03:19:39.926Z,101333.75
2022-10-11T03:20:42.162Z,101332.00
2022-10-11T03:21:44.720Z,101334.78
2022-10-11T03:22:47.011Z,101332.31
2022-10-11T03:23:49.391Z,101343.00
2022-10-11T03:24:51.659Z,101341.38
2022-10-11T03:25:53.835Z,101345.09
2022-10-11T03:26:56.140Z,101340.72
2022-10-11T03:27:58.491Z,101349.66
2022-10-11T03:29:00.639Z,101348.56
2022-10-11T03:30:03.674Z,101345.75
2022-10-11T03:31:05.953Z,101347.41
2022-10-11T03:32:08.102Z,101350.25
2022-10-11T03:33:10.659Z,101349.38
2022-10-11T03:34:12.853Z,101361.00
2022-10-11T03:35:15.349Z,101359.31
2022-10-11T03:36:17.657Z,101364.78
2022-10-11T03:37:20.094Z,101362.22
2022-10-11T03:38:22.799Z,101361.31
2022-10-11T03:39:24.947Z,101364.81
2022-10-11T03:40:27.234Z,101367.47
2022-10-11T03:41:30.115Z,101369.34
2022-10-11T03:42:32.277Z,101374.00
2022-10-11T03:43:34.576Z,101369.44
2022-10-11T03:44:36.780Z,101370.31
2022-10-11T03:45:39.713Z,101373.22
2022-10-11T03:46:41.860Z,101372.38
2022-10-11T03:47:44.061Z,101383.91
2022-10-11T03:48:46.356Z,101378.63
2022-10-11T03:49:48.548Z,101379.44
2022-10-11T03:50:50.740Z,101379.16
2022-10-11T03:51:53.039Z,101373.00
2022-10-11T03:52:55.193Z,101379.25
2022-10-11T03:53:57.755Z,101374.84
2022-10-11T03:54:59.909Z,101373.03
2022-10-11T03:56:07.375Z,101375.75
2022-10-11T03:57:10.714Z,101375.78
2022-10-11T03:58:12.878Z,101374.88
2022-10-11T03:59:15.046Z,101373.25
2022-10-11T04:00:17.283Z,101381.50
2022-10-11T04:01:19.594Z,101380.56
2022-10-11T04:02:21.773Z,101383.28
2022-10-11T04:03:23.993Z,101382.47
2022-10-11T04:04:26.283Z,101386.22
2022-10-11T04:05:28.455Z,101388.84
2022-10-11T04:06:30.800Z,101389.97
2022-10-11T04:07:33.351Z,101389.78
2022-10-11T04:08:35.606Z,101387.22
2022-10-11T04:09:38.121Z,101390.00
2022-10-11T04:10:40.929Z,101397.19
2022-10-11T04:11:43.077Z,101390.13
2022-10-11T04:12:46.129Z,101389.16
2022-10-11T04:13:48.492Z,101384.63
2022-10-11T04:14:50.639Z,101395.50
2022-10-11T04:15:52.909Z,101392.91
2022-10-11T04:16:59.528Z,101391.19
2022-10-11T04:18:02.469Z,101395.69
2022-10-11T04:19:05.262Z,101391.28
2022-10-11T04:20:08.044Z,101398.47
2022-10-11T04:21:12.921Z,101399.34
2022-10-11T04:22:15.246Z,101399.25
2022-10-11T04:23:17.375Z,101397.34
2022-10-11T04:24:19.846Z,101396.50
2022-10-11T04:25:22.033Z,101401.09
2022-10-11T04:26:24.285Z,101405.59
2022-10-11T04:27:29.891Z,101402.00
2022-10-11T04:28:33.143Z,101400.97
2022-10-11T04:29:35.496Z,101399.28
2022-10-11T04:30:37.689Z,101407.34
2022-10-11T04:31:40.183Z,101403.78
2022-10-11T04:32:42.703Z,101408.31
2022-10-11T04:33:44.905Z,101414.50
2022-10-11T04:34:47.324Z,101410.09
2022-10-11T04:35:53.066Z,101410.09
2022-10-11T04:36:55.241Z,101411.13
2022-10-11T04:37:57.399Z,101412.97
2022-10-11T04:39:01.771Z,101413.91
2022-10-11T04:40:06.030Z,101412.16
2022-10-11T04:41:09.982Z,101416.69
2022-10-11T04:42:12.190Z,101415.00
2022-10-11T04:43:16.636Z,101424.88
2022-10-11T04:44:19.153Z,101423.09
2022-10-11T04:45:21.825Z,101419.63
2022-10-11T04:46:24.930Z,101422.44
2022-10-11T04:47:27.194Z,101423.41
2022-10-11T04:48:29.390Z,101427.78
2022-10-11T04:49:31.701Z,101431.44
2022-10-11T04:50:34.099Z,101430.53
2022-10-11T04:51:36.284Z,101429.59
2022-10-11T04:52:38.599Z,101434.00
2022-10-11T04:53:40.775Z,101438.53
2022-10-11T04:54:43.123Z,101431.63
2022-10-11T04:55:45.448Z,101433.38
2022-10-11T04:56:47.634Z,101433.44
2022-10-11T04:57:49.815Z,101438.59
2022-10-11T04:58:54.290Z,101440.28
2022-10-11T04:59:56.729Z,101447.41
2022-10-11T05:00:59.203Z,101451.03
2022-10-11T05:02:01.464Z,101443.94
2022-10-11T05:03:03.664Z,101445.72
2022-10-11T05:04:05.925Z,101448.38
2022-10-11T05:05:08.800Z,101446.63
2022-10-11T05:06:11.236Z,101446.81
2022-10-11T05:07:13.810Z,101454.81
2022-10-11T05:08:16.350Z,101452.25
2022-10-11T05:09:18.782Z,101454.09
2022-10-11T05:10:21.040Z,101457.75
2022-10-11T05:11:23.291Z,101455.13
2022-10-11T05:12:25.632Z,101455.97
2022-10-11T05:13:29.733Z,101456.09
2022-10-11T05:14:31.939Z,101457.88
2022-10-11T05:15:34.630Z,101464.00
2022-10-11T05:16:36.767Z,101466.75
2022-10-11T05:17:38.986Z,101460.56
2022-10-11T05:18:41.439Z,101465.81
2022-10-11T05:19:44.051Z,101463.22
2022-10-11T05:20:46.415Z,101471.09
2022-10-11T05:21:48.782Z,101466.66
2022-10-11T05:22:51.191Z,101474.75
2022-10-11T05:23:57.607Z,101472.91
2022-10-11T05:25:00.122Z,101480.97
2022-10-11T05:26:03.654Z,101477.47
2022-10-11T05:27:06.020Z,101474.75
2022-10-11T05:28:08.458Z,101485.25
2022-10-11T05:29:10.649Z,101481.78
2022-10-11T05:30:13.073Z,101480.09
2022-10-11T05:31:16.403Z,101480.22
2022-10-11T05:32:18.517Z,101486.47
2022-10-11T05:33:21.404Z,101484.78
2022-10-11T05:34:23.552Z,101488.06
2022-10-11T05:35:26.061Z,101488.97
2022-10-11T05:36:28.224Z,101485.06
2022-10-11T05:37:30.387Z,101489.88
2022-10-11T05:38:32.518Z,101493.25
2022-10-11T05:39:34.856Z,101491.59
2022-10-11T05:40:44.098Z,101490.81
2022-10-11T05:41:46.244Z,101500.56
2022-10-11T05:42:48.378Z,101499.72
2022-10-11T05:43:50.598Z,101498.19
2022-10-11T05:44:53.100Z,101495.63
2022-10-11T05:45:55.500Z,101511.25
2022-10-11T05:46:57.659Z,101504.09
2022-10-11T05:47:59.954Z,101508.59
2022-10-11T05:49:02.118Z,101512.19
2022-10-11T05:50:04.447Z,101513.19
2022-10-11T05:51:10.064Z,101512.22
2022-10-11T05:52:13.242Z,101507.75
2022-10-11T05:53:15.727Z,101514.09
2022-10-11T05:54:18.075Z,101516.78
2022-10-11T05:55:20.641Z,101521.22
2022-10-11T05:56:24.785Z,101521.41
2022-10-11T05:57:27.216Z,101517.75
2022-10-11T05:58:29.444Z,101527.59
2022-10-11T05:59:31.604Z,101520.53
2022-10-11T06:00:40.431Z,101531.09
2022-10-11T06:01:42.689Z,101529.41
2022-10-11T06:02:45.205Z,101526.09
2022-10-11T06:03:47.691Z,101533.16
2022-10-11T06:04:50.308Z,101532.09
2022-10-11T06:05:56.733Z,101536.41
2022-10-11T06:06:59.407Z,101535.31
2022-10-11T06:08:02.949Z,101542.72
2022-10-11T06:09:05.254Z,101537.44
2022-10-11T06:10:08.210Z,101540.78
2022-10-11T06:11:15.084Z,101545.19
2022-10-11T06:12:17.780Z,101541.53
2022-10-11T06:13:19.967Z,101550.41
2022-10-11T06:14:22.346Z,101552.25
2022-10-11T06:15:25.163Z,101560.88
2022-10-11T06:16:27.796Z,101554.50
2022-10-11T06:17:29.920Z,101556.47
2022-10-11T06:18:32.478Z,101560.25
2022-10-11T06:19:34.655Z,101561.06
2022-10-11T06:20:37.179Z,101557.56
2022-10-11T06:21:39.826Z,101561.84
2022-10-11T06:22:42.680Z,101562.53
2022-10-11T06:23:48.737Z,101567.84
2022-10-11T06:24:50.914Z,101568.75
2022-10-11T06:25:57.561Z,101569.69
2022-10-11T06:27:00.443Z,101568.97
2022-10-11T06:28:03.062Z,101566.28
2022-10-11T06:29:05.964Z,101580.41
2022-10-11T06:30:08.949Z,101570.66
2022-10-11T06:31:12.203Z,101575.94
2022-10-11T06:32:14.429Z,101579.56
2022-10-11T06:33:31.789Z,101582.38
2022-10-11T06:34:34.125Z,101580.44
2022-10-11T06:35:36.260Z,101576.72
2022-10-11T06:36:38.618Z,101583.66
2022-10-11T06:37:40.773Z,101585.34
2022-10-11T06:38:45.212Z,101588.97
2022-10-11T06:39:47.847Z,101587.19
2022-10-11T06:40:49.973Z,101586.34
2022-10-11T06:41:52.505Z,101582.00
2022-10-11T06:42:54.639Z,101589.03
2022-10-11T06:43:57.375Z,101593.41
2022-10-11T06:44:59.750Z,101578.38
2022-10-11T06:46:02.164Z,101590.88
2022-10-11T06:47:06.759Z,101589.94
2022-10-11T06:48:09.380Z,101590.91
2022-10-11T06:49:11.503Z,101592.63
2022-10-11T06:50:13.782Z,101596.03
2022-10-11T06:51:19.275Z,101596.00
2022-10-11T06:52:21.691Z,101594.16
2022-10-11T06:53:23.834Z,101594.94
2022-10-11T06:54:26.763Z,101600.34
2022-10-11T06:55:28.956Z,101603.34
2022-10-11T06:56:31.611Z,101601.16
2022-10-11T06:57:33.781Z,101603.47
2022-10-11T06:58:37.127Z,101608.38
2022-10-11T06:59:39.317Z,101604.31
2022-10-11T07:00:41.641Z,101600.88
2022-10-11T07:01:43.996Z,101605.31
2022-10-11T07:02:47.945Z,101614.34
2022-10-11T07:03:52.349Z,101615.47
2022-10-11T07:04:54.955Z,101611.06
2022-10-11T07:06:08.024Z,101621.66
2022-10-11T07:07:13.645Z,101622.75
2022-10-11T07:08:15.779Z,101613.50
2022-10-11T07:09:18.062Z,101622.06
2022-10-11T07:10:20.228Z,101616.34
2022-10-11T07:11:25.507Z,101621.88
2022-10-11T07:12:28.837Z,101626.66
2022-10-11T07:13:31.219Z,101622.69
2022-10-11T07:14:33.499Z,101624.16
2022-10-11T07:15:41.089Z,101622.84
2022-10-11T07:16:43.215Z,101629.06
2022-10-11T07:17:45.573Z,101634.28
2022-10-11T07:18:54.796Z,101630.59
2022-10-11T07:19:59.628Z,101631.72
2022-10-11T07:21:07.660Z,101629.16
2022-10-11T07:22:09.877Z,101631.41
2022-10-11T07:23:12.493Z,101632.28
2022-10-11T07:24:14.839Z,101631.19
2022-10-11T07:25:17.349Z,101630.19
2022-10-11T07:26:19.976Z,101634.00
2022-10-11T07:27:23.405Z,101624.78
2022-10-11T07:28:26.892Z,101637.72
2022-10-11T07:29:29.168Z,101634.50
2022-10-11T07:30:31.636Z,101634.25
2022-10-11T07:31:33.798Z,101641.69
2022-10-11T07:32:36.078Z,101638.72
2022-10-11T07:33:38.451Z,101646.38
2022-10-11T07:34:40.802Z,101647.94
2022-10-11T07:35:48.074Z,101650.31
2022-10-11T07:36:50.685Z,101643.09
2022-10-11T07:37:53.025Z,101646.72
2022-10-11T07:38:55.186Z,101654.72
2022-10-11T07:39:57.455Z,101649.56
2022-10-11T07:41:00.028Z,101641.16
2022-10-11T07:42:02.494Z,101648.75
2022-10-11T07:43:04.628Z,101647.41
2022-10-11T07:44:06.833Z,101645.91
2022-10-11T07:45:09.337Z,101651.50
2022-10-11T07:46:11.898Z,101649.94
2022-10-11T07:47:14.067Z,101650.69
2022-10-11T07:48:16.398Z,101657.41
2022-10-11T07:49:18.560Z,101655.34
2022-10-11T07:50:20.862Z,101656.59
2022-10-11T07:51:24.398Z,101657.91
2022-10-11T07:52:26.547Z,101651.16
2022-10-11T07:53:31.243Z,101657.59
2022-10-11T07:54:33.721Z,101656.59
2022-10-11T07:55:40.341Z,101661.47
2022-10-11T07:56:42.512Z,101653.13
2022-10-11T07:57:44.666Z,101666.66
2022-10-11T07:58:51.609Z,101654.44
2022-10-11T07:59:53.769Z,101659.81
2022-10-11T08:00:56.123Z,101664.00
2022-10-11T08:01:58.491Z,101667.41
2022-10-11T08:03:07.263Z,101666.41
2022-10-11T08:04:10.259Z,101659.31
2022-10-11T08:05:12.699Z,101667.31
2022-10-11T08:06:23.217Z,101666.50
2022-10-11T08:07:26.276Z,101669.25
2022-10-11T08:08:28.616Z,101673.84
2022-10-11T08:09:31.735Z,101665.97
2022-10-11T08:10:40.696Z,101670.44
2022-10-11T08:11:45.666Z,101664.91
2022-10-11T08:12:48.456Z,101669.94
2022-10-11T08:13:53.340Z,101670.06
2022-10-11T08:14:55.969Z,101665.31
2022-10-11T08:15:58.515Z,101673.03
2022-10-11T08:17:03.432Z,101666.56
2022-10-11T08:18:05.633Z,101669.13
2022-10-11T08:19:07.883Z,101671.75
2022-10-11T08:20:10.421Z,101670.47
2022-10-11T08:21:16.895Z,101666.44
2022-10-11T08:22:19.121Z,101668.09
2022-10-11T08:23:21.385Z,101671.22
2022-10-11T08:24:24.993Z,101675.16
2022-10-11T08:25:27.212Z,101672.41
2022-10-11T08:26:32.427Z,101675.28
2022-10-11T08:27:34.838Z,101671.25
2022-10-11T08:28:37.289Z,101676.66
2022-10-11T08:29:39.569Z,101673.53
2022-10-11T08:30:48.016Z,101671.16
2022-10-11T08:31:52.938Z,101673.47
2022-10-11T08:32:55.336Z,101679.34
2022-10-11T08:33:59.827Z,101672.22
2022-10-11T08:35:02.186Z,101680.38
2022-10-11T08:36:07.168Z,101682.25
2022-10-11T08:37:12.524Z,101679.34
2022-10-11T08:38:15.506Z,101675.19
2022-10-11T08:39:17.737Z,101680.50
2022-10-11T08:40:22.250Z,101684.50
2022-10-11T08:41:27.830Z,101675.59
2022-10-11T08:42:48.861Z,101677.50
2022-10-11T08:44:26.484Z,101677.84
2022-10-11T08:45:35.428Z,101671.03
2022-10-11T08:46:42.219Z,101675.34
2022-10-11T08:47:45.884Z,101673.44
2022-10-11T08:48:52.091Z,101671.25
2022-10-11T08:49:55.183Z,101670.44
2022-10-11T08:51:01.165Z,101675.84
2022-10-11T08:52:13.686Z,101668.69
2022-10-11T08:53:48.009Z,101672.34
2022-10-11T08:55:04.657Z,101676.59
2022-10-11T08:56:09.405Z,101673.22
2022-10-11T08:57:16.264Z,101677.47
2022-10-11T08:58:42.436Z,101670.34
2022-10-11T08:59:52.311Z,101674.81
2022-10-11T09:00:56.623Z,101680.34
2022-10-11T09:02:13.620Z,101679.56
2022-10-11T09:03:31.466Z,101671.97
2022-10-11T09:04:34.744Z,101680.72
2022-10-11T09:05:48.501Z,101686.50
2022-10-11T09:07:04.558Z,101676.03
2022-10-11T09:08:25.594Z,101686.63
2022-10-11T09:10:27.990Z,101690.19
2022-10-11T09:11:55.102Z,101680.31
2022-10-11T09:13:17.643Z,101692.50
2022-10-11T09:14:38.373Z,101679.97
2022-10-11T09:15:55.422Z,101687.31
2022-10-11T09:17:07.606Z,101692.31
2022-10-11T09:18:18.664Z,101681.31
2022-10-11T09:19:27.412Z,101688.41
2022-10-11T09:21:00.731Z,101675.06
2022-10-11T09:22:17.004Z,101676.94
2022-10-11T09:23:35.388Z,101683.06
2022-10-11T09:25:12.794Z,101685.38
2022-10-11T09:26:23.133Z,101676.59
2022-10-11T09:28:05.647Z,101679.91
2022-10-11T09:29:31.385Z,101673.38
2022-10-11T09:30:40.189Z,101671.91
2022-10-11T09:31:48.148Z,101676.16
2022-10-11T09:33:03.890Z,101675.56
2022-10-11T09:34:12.059Z,101679.06
2022-10-11T09:35:14.542Z,101678.53
2022-10-11T09:36:19.972Z,101678.06
2022-10-11T09:37:42.005Z,101676.16
2022-10-11T09:39:04.325Z,101671.53
2022-10-11T09:40:35.104Z,101677.09
2022-10-11T09:42:05.562Z,101673.38
2022-10-11T09:43:09.306Z,101679.94
2022-10-11T09:44:23.522Z,101680.59
2022-10-11T09:45:25.832Z,101682.94
2022-10-11T09:46:44.621Z,101672.63
2022-10-11T09:47:48.362Z,101681.66
2022-10-11T09:48:51.938Z,101684.91
2022-10-11T09:50:15.655Z,101677.19
2022-10-11T09:51:21.522Z,101677.00
2022-10-11T09:52:25.464Z,101678.72
2022-10-11T09:53:59.464Z,101680.38
2022-10-11T09:55:02.834Z,101679.91
2022-10-11T09:56:05.680Z,101684.28
2022-10-11T09:57:23.615Z,101678.53
2022-10-11T09:58:35.335Z,101677.41
2022-10-11T09:59:37.643Z,101689.41
2022-10-11T10:00:39.806Z,101687.53
2022-10-11T10:01:42.066Z,101690.81
2022-10-11T10:02:53.246Z,101682.72
2022-10-11T10:04:17.015Z,101682.25
2022-10-11T10:05:22.606Z,101680.84
2022-10-11T10:06:27.550Z,101678.69
2022-10-11T10:07:32.479Z,101681.94
2022-10-11T10:08:35.693Z,101689.63
2022-10-11T10:09:37.997Z,101695.97
2022-10-11T10:10:55.791Z,101689.25
2022-10-11T10:12:12.358Z,101688.44
2022-10-11T10:13:22.353Z,101686.47
2022-10-11T10:14:28.234Z,101689.09
2022-10-11T10:15:49.237Z,101689.28
2022-10-11T10:17:06.305Z,101688.47
2022-10-11T10:18:22.384Z,101687.66
2022-10-11T10:19:25.449Z,101689.09
2022-10-11T10:20:33.512Z,101684.81
2022-10-11T10:21:46.583Z,101692.41
2022-10-11T10:22:49.173Z,101689.00
2022-10-11T10:23:55.382Z,101684.03
2022-10-11T10:25:02.261Z,101680.66
2022-10-11T10:26:13.639Z,101684.28
2022-10-11T10:27:24.687Z,101686.38
2022-10-11T10:28:27.543Z,101683.22
2022-10-11T10:29:29.843Z,101690.38
2022-10-11T10:30:35.585Z,101688.47
2022-10-11T10:32:12.760Z,101692.16
2022-10-11T10:33:13.057Z,101700.66
2022-10-11T10:34:19.417Z,101696.84
2022-10-11T10:35:41.288Z,101689.75
2022-10-11T10:36:47.605Z,101686.66
2022-10-11T10:38:05.318Z,101690.84
2022-10-11T10:39:18.425Z,101688.03
2022-10-11T10:40:25.560Z,101685.91
2022-10-11T10:41:27.841Z,101686.59
2022-10-11T10:42:30.025Z,101690.91
2022-10-11T10:43:37.586Z,101685.91
2022-10-11T10:44:39.852Z,101698.06
2022-10-11T10:46:08.498Z,101696.13
2022-10-11T10:47:26.011Z,101687.53
2022-10-11T10:49:19.062Z,101694.81
2022-10-11T10:50:16.256Z,101692.19
2022-10-11T10:51:41.220Z,101695.03
2022-10-11T10:53:05.229Z,101693.31
2022-10-11T10:54:44.385Z,101694.56
2022-10-11T10:55:59.889Z,101694.94
2022-10-11T10:57:10.056Z,101696.56
2022-10-11T10:58:34.263Z,101693.09
2022-10-11T11:00:00.148Z,101695.47
2022-10-11T11:01:24.004Z,101692.28
2022-10-11T11:02:52.587Z,101685.91
2022-10-11T11:04:10.067Z,101691.03
2022-10-11T11:05:12.519Z,101686.56
2022-10-11T11:06:38.591Z,101687.16
2022-10-11T11:08:06.878Z,101689.75
2022-10-11T11:09:29.056Z,101684.28
2022-10-11T11:10:40.092Z,101681.38
2022-10-11T11:11:49.078Z,101680.47
2022-10-11T11:13:14.319Z,101682.19
2022-10-11T11:14:28.474Z,101685.16
2022-10-11T11:15:40.892Z,101684.72
2022-10-11T11:17:17.508Z,101683.09
2022-10-11T11:18:22.754Z,101684.03
2022-10-11T11:19:36.985Z,101688.09
2022-10-11T11:20:55.355Z,101676.78
2022-10-11T11:22:30.499Z,101680.25
2022-10-11T11:23:43.819Z,101681.00
2022-10-11T11:24:57.811Z,101682.81
2022-10-11T11:26:18.245Z,101683.13
2022-10-11T11:27:54.106Z,101676.00
2022-10-11T11:28:59.205Z,101681.56
2022-10-11T11:30:14.477Z,101679.50
2022-10-11T11:31:36.384Z,101680.25
2022-10-11T11:32:57.100Z,101675.28
2022-10-11T11:34:13.946Z,101682.41
2022-10-11T11:35:23.935Z,101682.13
2022-10-11T11:36:44.303Z,101683.66
2022-10-11T11:37:48.494Z,101684.13
2022-10-11T11:39:01.735Z,101679.25
2022-10-11T11:40:31.783Z,101680.09
2022-10-11T11:41:47.730Z,101682.00
2022-10-11T11:43:06.624Z,101678.78
2022-10-11T11:44:27.318Z,101682.03
2022-10-11T11:45:54.866Z,101681.63
2022-10-11T11:47:03.129Z,101682.28
2022-10-11T11:48:24.812Z,101678.72
2022-10-11T11:49:50.100Z,101681.94
2022-10-11T11:51:30.539Z,101680.13
2022-10-11T11:52:44.084Z,101679.50
2022-10-11T11:53:52.502Z,101675.09
2022-10-11T11:55:03.817Z,101681.38
2022-10-11T11:56:34.001Z,101665.78
2022-10-11T11:58:24.052Z,101677.56
2022-10-11T12:00:03.986Z,101678.91
2022-10-11T12:01:31.505Z,101673.66
2022-10-11T12:02:47.841Z,101664.09
2022-10-11T12:03:55.172Z,101666.16
2022-10-11T12:04:58.134Z,101664.31
2022-10-11T12:06:35.945Z,101668.44
2022-10-11T12:07:51.781Z,101663.84
2022-10-11T12:09:22.757Z,101667.66
2022-10-11T12:10:33.636Z,101660.88
2022-10-11T12:11:44.459Z,101656.72
2022-10-11T12:12:47.339Z,101658.94
2022-10-11T12:13:52.162Z,101659.50
2022-10-11T12:15:10.109Z,101653.19
2022-10-11T12:16:15.624Z,101660.75
2022-10-11T12:17:21.731Z,101653.00
2022-10-11T12:18:24.161Z,101656.78
2022-10-11T12:19:27.446Z,101658.06
2022-10-11T12:20:29.966Z,101653.94
2022-10-11T12:21:39.221Z,101657.16
2022-10-11T12:22:58.300Z,101649.56
2022-10-11T12:24:13.095Z,101649.75
2022-10-11T12:25:18.493Z,101646.69
2022-10-11T12:26:36.899Z,101648.78
2022-10-11T12:27:46.332Z,101637.66
2022-10-11T12:29:28.834Z,101650.50
2022-10-11T12:30:53.353Z,101643.94
2022-10-11T12:31:58.442Z,101651.25
2022-10-11T12:33:15.240Z,101654.13
2022-10-11T12:34:34.836Z,101652.78
2022-10-11T12:35:40.035Z,101655.84
2022-10-11T12:36:44.294Z,101649.25
2022-10-11T12:37:51.439Z,101651.63
2022-10-11T12:39:18.425Z,101658.91
2022-10-11T12:40:42.367Z,101661.06
2022-10-11T12:41:47.277Z,101663.50
2022-10-11T12:43:14.292Z,101656.97
2022-10-11T12:44:22.844Z,101659.41
2022-10-11T12:45:31.799Z,101661.19
2022-10-11T12:46:40.899Z,101660.38
2022-10-11T12:48:06.198Z,101659.72
2022-10-11T12:49:33.596Z,101661.94
2022-10-11T12:50:42.000Z,101657.69
2022-10-11T12:52:17.925Z,101661.72
2022-10-11T12:53:26.196Z,101655.84
2022-10-11T12:55:05.733Z,101663.28
2022-10-11T12:56:41.863Z,101663.63
2022-10-11T12:58:15.117Z,101659.00
2022-10-11T12:59:21.370Z,101665.22